Time;durP1;ratioP1;P1;durP2;ratioP2;P2;SDS_P1;SDS_P2;PMS_P1;PMS_P2;Temp;Humidity;BMP_temperature;BMP_pressure;BME280_temperature;BME280_humidity;BME280_pressure;Samples;Min_cycle;Max_cycle;Signal;HPM_P1;HPM_P2
2022/03/08 00:02:22;;;;;;;20.58;9.60;;;;;;;2.12;59.18;98635.38;5019083;28;20046;-76
2022/03/08 00:04:48;;;;;;;17.13;9.30;;;;;;;2.14;58.92;98635.97;5020340;28;20049;-76
2022/03/08 00:07:15;;;;;;;22.45;9.50;;;;;;;2.15;58.81;98634.06;5020936;28;20064;-73
2022/03/08 00:09:43;;;;;;;18.27;8.48;;;;;;;2.13;58.65;98642.41;5009794;28;20737;-75
2022/03/08 00:12:10;;;;;;;16.73;7.53;;;;;;;2.10;58.70;98643.72;5027547;28;20072;-72
2022/03/08 00:14:36;;;;;;;17.40;8.35;;;;;;;2.12;58.49;98649.69;5023763;28;20049;-72
2022/03/08 00:17:04;;;;;;;15.93;7.65;;;;;;;2.15;58.20;98648.38;5018856;28;20398;-72
2022/03/08 00:19:30;;;;;;;15.93;7.40;;;;;;;2.13;58.18;98645.91;5009351;28;20050;-72
2022/03/08 00:21:57;;;;;;;16.73;8.43;;;;;;;2.19;58.05;98654.09;5016457;28;20057;-73
2022/03/08 00:24:23;;;;;;;14.32;7.38;;;;;;;2.16;58.03;98649.19;5010783;28;20049;-76
2022/03/08 00:26:49;;;;;;;17.65;7.65;;;;;;;2.16;58.02;98652.69;5029812;28;20045;-75
2022/03/08 00:29:15;;;;;;;16.33;7.43;;;;;;;2.17;58.02;98653.50;5030584;28;20453;-75
2022/03/08 00:31:41;;;;;;;15.50;8.13;;;;;;;2.18;58.01;98650.56;5027786;28;20099;-75
2022/03/08 00:34:08;;;;;;;20.38;7.38;;;;;;;2.12;57.98;98656.97;5003899;28;20056;-74
2022/03/08 00:36:34;;;;;;;16.98;6.57;;;;;;;2.11;58.19;98661.53;5029722;28;20072;-75
2022/03/08 00:39:01;;;;;;;13.75;6.70;;;;;;;2.16;57.94;98657.25;5026858;28;20049;-74
2022/03/08 00:41:27;;;;;;;14.63;6.10;;;;;;;2.11;57.96;98664.22;5008582;28;20049;-75
2022/03/08 00:43:53;;;;;;;15.82;6.93;;;;;;;2.13;57.86;98664.78;4995640;28;20041;-75
2022/03/08 00:46:20;;;;;;;15.32;5.97;;;;;;;2.02;58.01;98656.81;5027342;28;20037;-76
2022/03/08 00:48:46;;;;;;;12.77;5.70;;;;;;;2.12;58.00;98665.06;5003661;28;20561;-74
2022/03/08 00:51:13;;;;;;;12.63;5.40;;;;;;;2.03;58.19;98670.06;5009470;28;20053;-72
2022/03/08 00:53:39;;;;;;;14.55;5.88;;;;;;;2.01;58.03;98665.97;5000684;28;20103;-75
2022/03/08 00:56:07;;;;;;;13.35;5.95;;;;;;;2.05;57.78;98669.78;5030380;28;20049;-74
2022/03/08 00:58:35;;;;;;;12.25;5.32;;;;;;;1.98;57.97;98670.78;5025091;28;20136;-72
2022/03/08 01:01:03;;;;;;;12.43;5.28;;;;;;;1.98;58.00;98668.09;5025484;28;20046;-74
2022/03/08 01:03:29;;;;;;;11.25;5.00;;;;;;;2.02;57.76;98672.97;5026830;28;20422;-75
2022/03/08 01:05:55;;;;;;;11.00;4.72;;;;;;;2.01;57.95;98674.03;5028864;28;20080;-74
2022/03/08 01:08:21;;;;;;;17.98;5.30;;;;;;;2.04;57.79;98671.69;5030114;28;20061;-74
2022/03/08 01:10:48;;;;;;;11.82;4.88;;;;;;;2.04;58.10;98671.69;5003336;28;20057;-75
2022/03/08 01:13:15;;;;;;;11.60;4.85;;;;;;;2.01;57.84;98664.06;5024889;28;20057;-75
2022/03/08 01:15:41;;;;;;;10.97;4.50;;;;;;;1.90;57.97;98665.00;5017597;28;20045;-75
2022/03/08 01:18:09;;;;;;;9.65;3.90;;;;;;;2.00;57.84;98675.13;5029885;28;20327;-75
2022/03/08 01:20:35;;;;;;;13.63;4.00;;;;;;;2.00;57.92;98675.91;5020490;28;20525;-77
2022/03/08 01:23:02;;;;;;;11.98;3.95;;;;;;;1.96;57.85;98683.69;5023333;28;20045;-76
2022/03/08 01:25:28;;;;;;;10.32;3.50;;;;;;;1.97;57.69;98679.09;5018667;28;20523;-76
2022/03/08 01:27:55;;;;;;;11.95;3.88;;;;;;;1.88;57.93;98683.28;5012746;28;20430;-76
2022/03/08 01:30:23;;;;;;;11.23;3.97;;;;;;;1.88;57.88;98678.69;5028663;28;20049;-77
2022/03/08 01:32:50;;;;;;;11.02;4.00;;;;;;;1.86;57.67;98686.22;5031572;28;20092;-76
2022/03/08 01:35:17;;;;;;;10.57;4.53;;;;;;;1.81;57.86;98695.03;5033080;28;20077;-74
2022/03/08 01:37:43;;;;;;;13.95;4.53;;;;;;;1.87;57.45;98687.84;5029614;28;20057;-75
2022/03/08 01:40:14;;;;;;;9.10;4.20;;;;;;;1.87;57.31;98687.03;4983584;28;20422;-77
2022/03/08 01:42:42;;;;;;;11.68;4.85;;;;;;;1.84;57.50;98682.97;5029833;28;20506;-77
2022/03/08 01:45:09;;;;;;;14.45;5.38;;;;;;;1.79;57.34;98688.25;5021687;28;20399;-75
2022/03/08 01:47:35;;;;;;;10.95;4.72;;;;;;;1.72;57.73;98688.44;5030522;28;20041;-76
2022/03/08 01:50:02;;;;;;;11.90;5.40;;;;;;;1.68;57.71;98687.25;5027320;28;20049;-76
2022/03/08 01:52:29;;;;;;;10.60;4.68;;;;;;;1.66;57.72;98686.69;5029791;28;20731;-76
2022/03/08 01:54:55;;;;;;;11.25;5.15;;;;;;;1.73;57.29;98698.16;5023769;28;20042;-75
2022/03/08 01:57:25;;;;;;;10.52;5.00;;;;;;;1.73;57.25;98698.16;4999244;28;20525;-76
2022/03/08 01:59:52;;;;;;;11.10;4.97;;;;;;;1.65;57.17;98701.22;5018249;28;20057;-76
2022/03/08 02:02:19;;;;;;;12.15;5.43;;;;;;;1.61;57.16;98697.38;5024034;28;20046;-76
2022/03/08 02:04:46;;;;;;;16.00;5.63;;;;;;;1.60;56.96;98701.16;5030754;28;20050;-76
2022/03/08 02:07:13;;;;;;;12.60;5.00;;;;;;;1.61;56.82;98710.88;4999017;28;20053;-75
2022/03/08 02:09:39;;;;;;;11.25;5.18;;;;;;;1.52;56.82;98707.75;5020998;28;20050;-76
2022/03/08 02:12:06;;;;;;;13.27;5.28;;;;;;;1.46;56.89;98714.91;5025668;28;20557;-76
2022/03/08 02:14:32;;;;;;;12.32;5.70;;;;;;;1.44;56.83;98716.22;5016896;28;20060;-77
2022/03/08 02:16:59;;;;;;;14.40;5.50;;;;;;;1.39;56.71;98714.22;5011746;28;20045;-77
2022/03/08 02:19:25;;;;;;;13.25;4.97;;;;;;;1.35;56.58;98723.84;5018907;28;20045;-77
2022/03/08 02:21:54;;;;;;;12.98;5.47;;;;;;;1.38;56.71;98717.97;5015953;28;20111;-75
2022/03/08 02:24:20;;;;;;;13.02;5.00;;;;;;;1.43;56.25;98720.78;5009191;28;20052;-76
2022/03/08 02:26:46;;;;;;;15.30;5.03;;;;;;;1.43;56.45;98728.88;5024643;28;20046;-76
2022/03/08 02:29:13;;;;;;;15.10;5.57;;;;;;;1.35;56.02;98734.63;5012831;28;20045;-76
2022/03/08 02:31:39;;;;;;;15.20;5.32;;;;;;;1.28;56.28;98732.06;5029177;28;20490;-76
2022/03/08 02:34:05;;;;;;;12.18;5.05;;;;;;;1.15;56.35;98717.03;5028934;28;20053;-76
2022/03/08 02:36:31;;;;;;;13.25;5.88;;;;;;;1.37;55.95;98740.59;5007602;28;20507;-75
2022/03/08 02:38:58;;;;;;;12.13;5.38;;;;;;;1.26;56.20;98735.03;5012541;28;20091;-76
2022/03/08 02:41:25;;;;;;;11.60;5.07;;;;;;;1.19;56.08;98742.41;5025113;28;20069;-75
2022/03/08 02:43:51;;;;;;;13.07;5.38;;;;;;;1.20;56.37;98744.03;5022834;28;20048;-76
2022/03/08 02:46:17;;;;;;;13.07;5.57;;;;;;;1.24;56.06;98739.81;5000533;28;20518;-76
2022/03/08 02:48:44;;;;;;;11.15;4.63;;;;;;;1.29;55.92;98747.19;5004940;28;20434;-76
2022/03/08 02:51:10;;;;;;;11.68;5.45;;;;;;;1.29;55.80;98746.38;5012657;28;20481;-76
2022/03/08 02:53:36;;;;;;;12.73;5.15;;;;;;;1.27;55.95;98752.81;5023215;28;20484;-76
2022/03/08 02:56:04;;;;;;;12.77;4.97;;;;;;;1.18;55.88;98758.81;5001480;28;20115;-76
2022/03/08 02:58:30;;;;;;;11.57;5.10;;;;;;;1.18;56.02;98764.22;5014802;28;20034;-76
2022/03/08 03:00:56;;;;;;;12.40;5.25;;;;;;;1.19;55.97;98771.22;5029854;28;20056;-76
2022/03/08 03:03:23;;;;;;;11.88;5.10;;;;;;;1.22;55.66;98774.25;5029654;28;20088;-76
2022/03/08 03:05:49;;;;;;;12.00;5.07;;;;;;;1.17;55.58;98768.75;5024904;28;20053;-77
2022/03/08 03:08:15;;;;;;;12.27;5.20;;;;;;;1.16;55.36;98785.97;5022163;28;20041;-76
2022/03/08 03:10:41;;;;;;;16.60;5.63;;;;;;;1.11;55.56;98784.00;5013926;28;20049;-75
2022/03/08 03:13:08;;;;;;;11.38;4.65;;;;;;;1.13;55.44;98786.47;5019845;28;20107;-75
2022/03/08 03:15:34;;;;;;;12.80;4.80;;;;;;;1.08;55.56;98791.72;5026488;28;20137;-76
2022/03/08 03:18:01;;;;;;;11.13;4.50;;;;;;;1.13;55.49;98792.66;5004070;28;20072;-77
2022/03/08 03:20:28;;;;;;;14.38;4.93;;;;;;;1.05;55.38;98792.19;5017455;28;20050;-76
2022/03/08 03:22:54;;;;;;;11.10;4.75;;;;;;;0.98;55.49;98793.16;5014852;28;20041;-76
2022/03/08 03:25:21;;;;;;;11.25;4.20;;;;;;;1.02;55.31;98801.59;5012024;28;20046;-76
2022/03/08 03:27:47;;;;;;;10.75;4.82;;;;;;;1.08;55.26;98800.63;5006323;28;20057;-77
2022/03/08 03:30:16;;;;;;;12.88;4.45;;;;;;;1.02;55.07;98800.75;5024398;28;20045;-77
2022/03/08 03:32:43;;;;;;;11.63;4.82;;;;;;;0.92;55.31;98812.13;5015092;28;20064;-77
2022/03/08 03:35:10;;;;;;;13.55;5.13;;;;;;;0.97;55.15;98814.91;5031126;28;20338;-76
2022/03/08 03:37:37;;;;;;;13.05;4.90;;;;;;;0.97;54.94;98804.16;5021023;28;20125;-76
2022/03/08 03:40:04;;;;;;;11.23;4.95;;;;;;;0.92;55.10;98806.75;5014147;28;20053;-76
2022/03/08 03:42:31;;;;;;;11.45;4.70;;;;;;;0.58;54.90;98764.28;5014833;28;20041;-76
2022/03/08 03:44:57;;;;;;;12.55;4.72;;;;;;;0.94;54.72;98816.22;5006014;28;20060;-76
2022/03/08 03:47:24;;;;;;;13.38;4.85;;;;;;;0.81;54.96;98814.59;5031331;28;20162;-75
2022/03/08 03:49:50;;;;;;;12.70;4.70;;;;;;;0.70;54.72;98804.63;5029808;28;20072;-77
2022/03/08 03:52:16;;;;;;;9.32;3.90;;;;;;;0.88;54.74;98838.69;5035834;28;21746;-76
2022/03/08 03:54:42;;;;;;;10.32;4.10;;;;;;;0.81;54.77;98830.72;5012135;28;20053;-76
2022/03/08 03:57:11;;;;;;;10.65;4.32;;;;;;;0.76;54.96;98829.78;5025068;28;20045;-77
2022/03/08 03:59:39;;;;;;;11.15;4.65;;;;;;;0.73;54.96;98827.56;5027333;28;20045;-77
2022/03/08 04:02:05;;;;;;;11.88;5.07;;;;;;;0.67;54.91;98842.78;5017746;28;20046;-77
2022/03/08 04:04:32;;;;;;;11.10;4.80;;;;;;;0.70;54.83;98839.59;5026801;28;20049;-76
2022/03/08 04:06:58;;;;;;;10.07;4.30;;;;;;;0.67;54.81;98834.69;5006257;28;20053;-76
2022/03/08 04:09:24;;;;;;;12.77;5.10;;;;;;;0.60;54.84;98837.50;5023687;28;20057;-76
2022/03/08 04:11:50;;;;;;;12.07;5.32;;;;;;;0.59;54.80;98843.94;5016589;28;20073;-75
2022/03/08 04:14:17;;;;;;;10.48;4.80;;;;;;;0.63;54.98;98847.00;5029404;28;20567;-75
2022/03/08 04:16:44;;;;;;;13.30;4.93;;;;;;;0.54;54.88;98839.25;5017717;28;20046;-76
2022/03/08 04:19:10;;;;;;;13.13;5.32;;;;;;;0.73;54.62;98843.72;5007497;28;20068;-76
2022/03/08 04:21:37;;;;;;;32.47;13.38;;;;;;;0.67;54.73;98858.91;5024438;28;20045;-75
2022/03/08 04:24:03;;;;;;;23.23;9.77;;;;;;;0.65;54.94;98850.25;5027762;28;20564;-75
2022/03/08 04:26:29;;;;;;;17.23;7.13;;;;;;;0.65;54.85;98859.16;5004944;28;20043;-74
2022/03/08 04:28:55;;;;;;;13.60;5.22;;;;;;;0.67;54.81;98854.38;5000728;28;20049;-75
2022/03/08 04:31:22;;;;;;;11.73;5.40;;;;;;;0.71;54.66;98857.44;4982255;28;20069;-74
2022/03/08 04:33:48;;;;;;;12.45;4.82;;;;;;;0.69;54.79;98865.72;5022829;28;20045;-75
2022/03/08 04:36:14;;;;;;;13.40;4.80;;;;;;;0.66;54.74;98862.66;5018305;28;20145;-75
2022/03/08 04:38:41;;;;;;;12.27;4.90;;;;;;;0.58;55.25;98877.28;5018564;28;20053;-74
2022/03/08 04:41:08;;;;;;;16.25;5.13;;;;;;;0.62;55.08;98865.00;5020379;28;20049;-75
2022/03/08 04:43:34;;;;;;;13.10;5.20;;;;;;;0.70;54.92;98879.97;5005601;28;20399;-75
2022/03/08 04:46:00;;;;;;;11.55;4.93;;;;;;;0.67;55.20;98881.28;5027828;28;20065;-75
2022/03/08 04:48:27;;;;;;;12.63;5.25;;;;;;;0.69;55.21;98881.88;5007313;28;20049;-75
2022/03/08 04:50:53;;;;;;;14.80;5.45;;;;;;;0.72;55.30;98885.97;5002122;28;20422;-75
2022/03/08 04:53:19;;;;;;;11.38;4.70;;;;;;;0.75;55.16;98890.88;5017538;28;20046;-74
2022/03/08 04:55:46;;;;;;;12.25;4.80;;;;;;;0.72;54.91;98879.75;5030493;28;20152;-76
2022/03/08 04:58:12;;;;;;;13.80;5.00;;;;;;;0.82;55.05;98896.16;5023161;28;20569;-75
2022/03/08 05:00:38;;;;;;;12.13;4.47;;;;;;;0.79;55.16;98897.44;5024196;28;20045;-75
2022/03/08 05:03:04;;;;;;;14.02;5.15;;;;;;;0.78;55.16;98900.34;5021023;28;20061;-75
2022/03/08 05:05:33;;;;;;;12.27;5.13;;;;;;;0.79;55.14;98902.00;5024329;28;20108;-74
2022/03/08 05:07:59;;;;;;;11.30;4.55;;;;;;;0.74;55.24;98909.94;5013214;28;20365;-73
2022/03/08 05:10:26;;;;;;;13.40;4.85;;;;;;;0.82;54.92;98923.06;5025516;28;20069;-74
2022/03/08 05:12:54;;;;;;;11.77;5.00;;;;;;;0.72;55.24;98920.13;5008056;28;20057;-74
2022/03/08 05:15:20;;;;;;;13.02;4.95;;;;;;;0.78;55.26;98920.00;5024326;28;20060;-75
2022/03/08 05:17:46;;;;;;;10.98;4.40;;;;;;;0.90;55.02;98928.09;5010018;28;20046;-75
2022/03/08 05:20:12;;;;;;;11.57;4.75;;;;;;;0.89;54.93;98931.03;5019821;28;20280;-74
2022/03/08 05:22:39;;;;;;;12.70;5.07;;;;;;;0.93;54.65;98929.50;5032168;28;20137;-74
2022/03/08 05:25:06;;;;;;;12.02;4.80;;;;;;;0.93;54.70;98934.91;5029504;28;20415;-75
2022/03/08 05:27:34;;;;;;;13.10;5.43;;;;;;;0.87;54.80;98943.91;5026318;28;20496;-74
2022/03/08 05:30:01;;;;;;;11.13;4.90;;;;;;;0.88;54.66;98949.03;5029112;28;20044;-74
2022/03/08 05:32:27;;;;;;;16.25;5.28;;;;;;;0.93;54.48;98946.47;5012489;28;20152;-74
2022/03/08 05:34:53;;;;;;;12.85;5.68;;;;;;;0.78;54.53;98936.16;5015851;28;20152;-75
2022/03/08 05:37:20;;;;;;;13.95;5.65;;;;;;;0.87;54.42;98958.19;5015227;28;20045;-74
2022/03/08 05:39:45;;;;;;;12.15;5.25;;;;;;;0.87;54.28;98960.06;5017885;28;20137;-75
2022/03/08 05:42:12;;;;;;;11.90;5.07;;;;;;;0.98;53.94;98959.25;5020768;28;20065;-74
2022/03/08 05:44:38;;;;;;;12.00;4.85;;;;;;;0.97;53.78;98965.69;5016284;28;20050;-75
2022/03/08 05:47:06;;;;;;;12.75;5.07;;;;;;;0.95;53.42;98962.41;5002546;28;20056;-75
2022/03/08 05:49:33;;;;;;;12.95;5.10;;;;;;;0.82;53.73;98958.88;5027857;28;20469;-75
2022/03/08 05:51:59;;;;;;;14.48;5.38;;;;;;;0.84;53.72;98969.41;5027274;28;20052;-75
2022/03/08 05:54:25;;;;;;;13.30;5.45;;;;;;;0.85;53.33;98974.53;5016238;28;20505;-75
2022/03/08 05:56:52;;;;;;;16.30;5.28;;;;;;;0.86;53.54;98961.91;5035274;28;20040;-75
2022/03/08 05:59:18;;;;;;;12.25;4.95;;;;;;;0.91;53.14;98969.31;5031675;28;20502;-76
2022/03/08 06:01:44;;;;;;;13.48;5.30;;;;;;;1.00;53.08;98970.59;5026860;28;20059;-75
2022/03/08 06:04:11;;;;;;;13.13;5.53;;;;;;;1.02;52.78;98976.59;5015904;28;20524;-75
2022/03/08 06:06:37;;;;;;;10.63;4.65;;;;;;;1.05;52.75;98973.44;5020992;28;20045;-75
2022/03/08 06:09:04;;;;;;;13.35;6.00;;;;;;;1.08;52.83;98981.03;5023646;28;20141;-75
2022/03/08 06:11:30;;;;;;;11.52;4.85;;;;;;;1.11;52.41;98979.75;5003193;28;20045;-75
2022/03/08 06:13:56;;;;;;;14.90;6.22;;;;;;;1.06;52.47;98988.53;5005747;28;20402;-75
2022/03/08 06:16:22;;;;;;;17.98;5.53;;;;;;;1.09;52.41;98989.91;5026737;28;20584;-75
2022/03/08 06:18:49;;;;;;;13.23;5.20;;;;;;;1.20;52.08;98991.81;5004275;28;20050;-75
2022/03/08 06:21:15;;;;;;;12.55;5.18;;;;;;;1.17;51.70;98997.66;5020160;28;20430;-76
2022/03/08 06:23:41;;;;;;;10.70;4.80;;;;;;;1.09;51.74;98990.75;5015902;28;20633;-75
2022/03/08 06:26:08;;;;;;;11.50;5.53;;;;;;;1.17;51.86;98986.91;5027798;28;20505;-76
2022/03/08 06:28:34;;;;;;;14.02;5.72;;;;;;;1.24;51.29;98998.38;5011525;28;20042;-74
2022/03/08 06:31:00;;;;;;;12.45;5.40;;;;;;;0.99;51.25;98980.56;5009714;28;20049;-75
2022/03/08 06:33:26;;;;;;;14.82;5.30;;;;;;;1.18;51.25;98999.31;5010436;28;20052;-76
2022/03/08 06:35:52;;;;;;;11.00;4.88;;;;;;;1.19;51.07;99008.22;5021132;28;20060;-75
2022/03/08 06:38:19;;;;;;;14.15;5.93;;;;;;;1.13;51.15;98989.22;5020447;28;20087;-76
2022/03/08 06:40:45;;;;;;;12.25;5.68;;;;;;;1.20;50.98;99004.47;5030397;28;20051;-76
2022/03/08 06:43:11;;;;;;;11.05;5.45;;;;;;;1.19;51.19;99016.31;5034965;28;20516;-75
2022/03/08 06:45:37;;;;;;;13.27;5.85;;;;;;;1.20;50.51;99016.06;5022534;28;20072;-75
2022/03/08 06:48:04;;;;;;;10.50;5.28;;;;;;;1.29;50.42;99011.13;5016884;28;20100;-76
2022/03/08 06:50:30;;;;;;;10.90;4.70;;;;;;;1.26;50.09;99017.00;5018330;28;20038;-76
2022/03/08 06:52:56;;;;;;;13.35;5.47;;;;;;;1.34;49.97;99034.69;5003140;28;20326;-76
2022/03/08 06:55:23;;;;;;;11.63;4.90;;;;;;;1.10;50.31;99026.59;5027970;28;20045;-75
2022/03/08 06:57:50;;;;;;;12.20;5.30;;;;;;;1.24;50.04;99038.75;5024093;28;20132;-75
2022/03/08 07:00:16;;;;;;;11.45;5.28;;;;;;;1.22;49.89;99035.50;5021063;28;20077;-76
2022/03/08 07:02:43;;;;;;;11.23;4.70;;;;;;;1.23;49.86;99045.22;5035907;28;20049;-76
2022/03/08 07:05:10;;;;;;;10.10;4.55;;;;;;;1.18;49.87;99044.28;5026449;28;20042;-76
2022/03/08 07:07:37;;;;;;;20.55;5.35;;;;;;;1.30;49.62;99045.09;5023658;28;20536;-76
2022/03/08 07:10:04;;;;;;;;;;;;;;;1.26;49.72;99055.53;5025248;28;20049;-74
2022/03/08 07:12:31;;;;;;;11.10;5.45;;;;;;;1.07;50.03;99045.88;5015960;28;19964;-75
2022/03/08 07:14:57;;;;;;;15.05;4.80;;;;;;;1.04;50.29;99051.72;5012362;28;20053;-75
2022/03/08 07:17:23;;;;;;;12.68;5.53;;;;;;;1.10;50.18;99061.59;5037343;28;20067;-75
2022/03/08 07:19:50;;;;;;;12.35;5.53;;;;;;;1.05;50.27;99059.59;5034186;28;20057;-75
2022/03/08 07:22:17;;;;;;;12.23;4.95;;;;;;;1.11;50.03;99066.72;5025433;28;20038;-75
2022/03/08 07:24:43;;;;;;;13.82;5.43;;;;;;;1.13;50.13;99061.13;5027919;28;20077;-75
2022/03/08 07:27:10;;;;;;;10.40;4.70;;;;;;;1.19;49.94;99057.50;5041749;28;20045;-76
2022/03/08 07:29:36;;;;;;;14.50;4.75;;;;;;;1.12;49.83;99063.00;5032494;28;20045;-74
2022/03/08 07:32:03;;;;;;;11.38;4.50;;;;;;;1.08;49.89;99071.75;5027517;28;20049;-75
2022/03/08 07:34:30;;;;;;;11.82;4.50;;;;;;;1.05;49.77;99064.13;4999815;28;20050;-75
2022/03/08 07:36:56;;;;;;;12.93;4.70;;;;;;;1.18;49.47;99063.94;5012936;28;20599;-75
2022/03/08 07:39:22;;;;;;;12.50;4.72;;;;;;;1.12;49.46;99075.66;5023782;28;20107;-74
2022/03/08 07:41:48;;;;;;;9.85;4.22;;;;;;;1.09;49.48;99085.00;5026576;28;20084;-77
2022/03/08 07:44:15;;;;;;;12.77;4.55;;;;;;;1.07;49.63;99084.41;5019835;28;20056;-74
2022/03/08 07:46:42;;;;;;;11.57;5.03;;;;;;;1.05;49.59;99096.44;5021147;28;20042;-75
2022/03/08 07:49:08;;;;;;;11.73;4.63;;;;;;;1.07;49.58;99089.78;5011602;28;20126;-74
2022/03/08 07:51:34;;;;;;;10.38;4.03;;;;;;;1.13;49.58;99086.16;5020834;28;20053;-74
2022/03/08 07:54:01;;;;;;;12.10;4.85;;;;;;;1.19;49.21;99094.41;5021558;28;20080;-74
2022/03/08 07:56:27;;;;;;;10.27;4.03;;;;;;;1.12;49.18;99094.50;5025527;28;20053;-75
2022/03/08 07:58:54;;;;;;;11.13;4.30;;;;;;;1.21;48.83;99097.69;5012654;28;20115;-74
2022/03/08 08:01:20;;;;;;;11.30;4.50;;;;;;;1.13;48.93;99102.34;5029342;28;20183;-75
2022/03/08 08:03:47;;;;;;;13.52;4.70;;;;;;;1.17;48.96;99104.56;5035535;28;20052;-75
2022/03/08 08:06:13;;;;;;;17.25;4.90;;;;;;;1.16;49.00;99111.00;5030723;28;20446;-74
2022/03/08 08:08:39;;;;;;;13.80;4.53;;;;;;;1.19;48.93;99113.25;5026030;28;20069;-74
2022/03/08 08:11:06;;;;;;;11.07;4.38;;;;;;;1.29;48.55;99116.19;5028592;28;20128;-73
2022/03/08 08:13:32;;;;;;;11.40;4.70;;;;;;;1.33;48.09;99114.69;5032189;28;20057;-74
2022/03/08 08:15:58;;;;;;;16.35;4.75;;;;;;;1.16;48.49;99114.53;5027022;28;20046;-74
2022/03/08 08:18:24;;;;;;;11.82;4.63;;;;;;;1.17;48.30;99126.94;5043430;28;20532;-74
2022/03/08 08:20:51;;;;;;;11.48;4.53;;;;;;;1.19;48.43;99119.44;5033177;28;20051;-74
2022/03/08 08:23:18;;;;;;;14.48;4.63;;;;;;;1.26;48.11;99128.25;5013582;28;20071;-74
2022/03/08 08:25:44;;;;;;;12.23;4.43;;;;;;;1.27;47.99;99135.28;5013266;28;20076;-73
2022/03/08 08:28:11;;;;;;;14.80;5.32;;;;;;;1.25;47.82;99123.94;5031805;28;20076;-73
2022/03/08 08:30:37;;;;;;;15.23;5.13;;;;;;;1.23;48.01;99135.97;5032009;28;20379;-74
2022/03/08 08:33:04;;;;;;;15.27;6.67;;;;;;;1.03;47.76;99099.38;5026858;28;20050;-72
2022/03/08 08:35:30;;;;;;;16.63;6.70;;;;;;;1.06;48.13;99123.16;5026479;28;20494;-74
2022/03/08 08:37:57;;;;;;;21.20;7.38;;;;;;;1.09;48.06;99132.63;5040390;28;20049;-74
2022/03/08 08:40:23;;;;;;;18.90;6.93;;;;;;;1.22;48.01;99148.59;5030246;28;20053;-75
2022/03/08 08:42:49;;;;;;;20.77;7.20;;;;;;;1.35;47.72;99141.38;5035963;28;20304;-74
2022/03/08 08:45:15;;;;;;;17.27;6.72;;;;;;;1.35;47.28;99139.53;5031872;28;20084;-75
2022/03/08 08:47:42;;;;;;;15.60;5.28;;;;;;;1.28;47.49;99141.47;5017624;28;20496;-73
2022/03/08 08:50:09;;;;;;;13.77;5.35;;;;;;;1.33;47.46;99148.88;5024632;28;20045;-74
2022/03/08 08:52:35;;;;;;;12.98;5.30;;;;;;;1.22;47.62;99154.00;5027289;28;20038;-74
2022/03/08 08:55:02;;;;;;;13.68;5.82;;;;;;;1.25;47.56;99148.19;5014902;28;20095;-74
2022/03/08 08:57:29;;;;;;;12.48;6.13;;;;;;;1.26;47.43;99149.81;5034683;28;20148;-74
2022/03/08 08:59:55;;;;;;;12.93;4.70;;;;;;;1.27;47.38;99151.47;5027191;28;20140;-73
2022/03/08 09:02:21;;;;;;;13.98;5.80;;;;;;;1.29;47.53;99150.41;5023600;28;20060;-73
2022/03/08 09:04:48;;;;;;;10.27;4.35;;;;;;;1.26;47.49;99154.38;5023004;28;20085;-75
2022/03/08 09:07:14;;;;;;;15.27;4.72;;;;;;;1.29;47.55;99155.78;5030544;28;20059;-77
2022/03/08 09:09:40;;;;;;;10.48;4.55;;;;;;;1.36;47.38;99162.72;5026540;28;20586;-76
2022/03/08 09:12:08;;;;;;;14.75;4.65;;;;;;;1.43;47.02;99159.94;5013098;28;20453;-74
2022/03/08 09:14:34;;;;;;;13.65;4.88;;;;;;;1.46;47.49;99158.63;5025141;28;20549;-78
2022/03/08 09:17:01;;;;;;;12.05;4.63;;;;;;;1.37;46.87;99153.59;5016147;28;20595;-76
2022/03/08 09:19:27;;;;;;;13.30;5.28;;;;;;;1.45;47.33;99165.06;5029762;28;20054;-76
2022/03/08 09:21:57;;;;;;;13.60;5.05;;;;;;;1.53;47.21;99162.88;5031747;28;20049;-76
2022/03/08 09:24:23;;;;;;;17.60;5.00;;;;;;;1.51;47.02;99169.56;5029546;28;20060;-75
2022/03/08 09:26:49;;;;;;;13.30;5.10;;;;;;;1.60;46.84;99172.75;5028574;28;20272;-74
2022/03/08 09:29:17;;;;;;;12.63;4.65;;;;;;;1.58;46.61;99175.66;5028081;28;20144;-74
2022/03/08 09:31:44;;;;;;;12.10;5.05;;;;;;;1.57;46.57;99174.00;5024818;28;20056;-75
2022/03/08 09:34:10;;;;;;;13.60;5.07;;;;;;;1.54;46.72;99167.19;5030667;28;20045;-74
2022/03/08 09:36:37;;;;;;;15.60;5.28;;;;;;;1.48;46.71;99160.06;5023662;28;20402;-74
2022/03/08 09:39:06;;;;;;;15.73;5.97;;;;;;;1.52;46.77;99174.69;5019888;28;20524;-74
2022/03/08 09:41:32;;;;;;;13.50;5.60;;;;;;;1.59;46.66;99190.78;5028457;28;20049;-74
2022/03/08 09:43:59;;;;;;;15.65;5.28;;;;;;;1.63;46.67;99191.94;5024597;28;20044;-74
2022/03/08 09:46:26;;;;;;;18.83;6.07;;;;;;;1.64;46.72;99195.47;5027933;28;20053;-74
2022/03/08 09:48:53;;;;;;;13.40;5.20;;;;;;;1.66;46.42;99193.38;5031525;28;20061;-74
2022/03/08 09:51:23;;;;;;;14.00;4.60;;;;;;;1.57;46.60;99192.06;5014003;28;20060;-73
2022/03/08 09:53:53;;;;;;;11.00;4.45;;;;;;;1.58;46.61;99186.44;5002506;28;20049;-73
2022/03/08 09:56:20;;;;;;;16.75;4.20;;;;;;;1.48;46.66;99199.63;5003009;28;20429;-73
2022/03/08 09:58:47;;;;;;;10.77;4.00;;;;;;;1.37;46.87;99196.69;5029794;28;20151;-74
2022/03/08 10:01:13;;;;;;;18.83;4.22;;;;;;;1.39;46.87;99207.22;5030868;28;20422;-74
2022/03/08 10:03:43;;;;;;;8.82;3.83;;;;;;;1.38;46.86;99190.25;5030030;28;20045;-73
2022/03/08 10:06:11;;;;;;;11.55;4.30;;;;;;;1.39;46.61;99201.84;5022885;28;20145;-73
2022/03/08 10:08:37;;;;;;;;;;;;;;;1.40;46.67;99203.47;5035949;28;20049;-74
2022/03/08 10:11:06;;;;;;;10.50;4.53;;;;;;;1.37;46.58;99210.16;5030324;28;19936;-73
2022/03/08 10:13:36;;;;;;;11.05;4.25;;;;;;;1.45;46.52;99209.03;5006875;28;20050;-74
2022/03/08 10:16:12;;;;;;;13.35;4.32;;;;;;;1.25;46.65;99196.66;5028115;28;20080;-73
2022/03/08 10:18:40;;;;;;;14.95;4.70;;;;;;;1.27;46.45;99194.56;5030351;28;20590;-73
2022/03/08 10:21:25;;;;;;;15.25;5.30;;;;;;;1.37;46.61;99215.56;5012079;28;20532;-73
2022/03/08 10:23:52;;;;;;;16.33;5.53;;;;;;;1.39;46.50;99207.22;5028857;28;20127;-74
2022/03/08 10:26:19;;;;;;;14.38;5.43;;;;;;;1.42;46.52;99209.47;5030567;28;20426;-73
2022/03/08 10:28:47;;;;;;;10.83;4.37;;;;;;;1.48;46.38;99207.72;5028777;28;20049;-74
2022/03/08 10:31:15;;;;;;;12.68;5.32;;;;;;;1.55;46.03;99205.75;5044710;28;20312;-73
2022/03/08 10:33:41;;;;;;;11.10;4.50;;;;;;;1.47;46.10;99211.47;5026101;28;20049;-74
2022/03/08 10:36:13;;;;;;;13.18;5.07;;;;;;;1.55;45.95;99220.03;5022721;28;20153;-73
2022/03/08 10:38:40;;;;;;;10.38;4.80;;;;;;;1.44;46.05;99215.47;5023711;28;20060;-77
2022/03/08 10:41:17;;;;;;;12.50;4.82;;;;;;;1.50;45.70;99227.19;5022678;28;20049;-75
2022/03/08 10:43:48;;;;;;;10.65;4.50;;;;;;;1.51;45.73;99226.16;5022415;28;20049;-75
2022/03/08 10:46:17;;;;;;;12.30;4.53;;;;;;;1.31;45.95;99224.53;5021986;28;20524;-75
2022/03/08 10:48:45;;;;;;;15.25;4.65;;;;;;;1.34;45.92;99221.41;5025459;28;20057;-75
2022/03/08 10:51:17;;;;;;;10.82;4.50;;;;;;;1.44;45.66;99234.31;5028217;28;20041;-74
2022/03/08 10:53:43;;;;;;;13.20;4.63;;;;;;;1.50;45.52;99232.59;5018454;28;20064;-74
2022/03/08 10:56:11;;;;;;;12.50;5.15;;;;;;;1.52;45.26;99233.19;5026116;28;20119;-74
2022/03/08 10:58:48;;;;;;;12.20;5.25;;;;;;;1.35;44.97;99232.97;5027822;28;20049;-74
2022/03/08 11:01:14;;;;;;;11.60;4.55;;;;;;;1.17;45.65;99231.97;5030049;28;20501;-74
2022/03/08 11:03:53;;;;;;;13.50;4.70;;;;;;;1.22;45.50;99240.19;5030094;28;20107;-74
2022/03/08 11:06:22;;;;;;;14.32;4.75;;;;;;;1.20;45.77;99228.81;5025092;28;20143;-75
2022/03/08 11:08:48;;;;;;;10.70;4.32;;;;;;;1.34;45.48;99247.50;5026641;28;20132;-74
2022/03/08 11:11:14;;;;;;;11.02;4.03;;;;;;;1.33;45.50;99248.56;5023252;28;20049;-75
2022/03/08 11:13:43;;;;;;;14.90;4.30;;;;;;;1.45;45.04;99243.22;5013847;28;20042;-75
2022/03/08 11:16:10;;;;;;;12.88;4.85;;;;;;;1.50;45.10;99238.78;5015501;28;20152;-74
2022/03/08 11:18:37;;;;;;;10.80;4.20;;;;;;;1.47;44.96;99241.09;5026325;28;20072;-75
2022/03/08 11:21:05;;;;;;;14.63;4.70;;;;;;;1.46;44.98;99250.25;5028557;28;20056;-76
2022/03/08 11:23:32;;;;;;;12.18;5.28;;;;;;;1.46;45.27;99250.25;5028584;28;20056;-76
2022/03/08 11:26:00;;;;;;;10.07;4.30;;;;;;;1.47;45.37;99244.63;5020970;28;20553;-74
2022/03/08 11:28:27;;;;;;;12.98;5.18;;;;;;;1.48;45.39;99254.38;5045512;28;20045;-73
2022/03/08 11:30:56;;;;;;;15.55;5.40;;;;;;;1.60;45.08;99248.22;5036912;28;20053;-75
2022/03/08 11:33:46;;;;;;;13.30;5.00;;;;;;;1.58;44.86;99253.81;5032587;28;20048;-76